Time;durP1;ratioP1;P1;durP2;ratioP2;P2;SDS_P1;SDS_P2;PMS_P1;PMS_P2;Temp;Humidity;BMP_temperature;BMP_pressure;BME280_temperature;BME280_humidity;BME280_pressure;Samples;Min_cycle;Max_cycle;Signal;HPM_P1;HPM_P2
2022/09/11 00:01:26;;;;;;;2.33;2.07;;;14.90;99.90;;;;;;5035089;28;20873;-83
2022/09/11 00:03:53;;;;;;;2.10;1.50;;;14.90;99.90;;;;;;5034493;28;21008;-83
2022/09/11 00:06:21;;;;;;;2.53;2.40;;;14.80;99.90;;;;;;5035814;28;20476;-82
2022/09/11 00:08:48;;;;;;;1.90;1.37;;;14.70;99.90;;;;;;5034999;28;20456;-83
2022/09/11 00:11:17;;;;;;;1.90;1.63;;;14.70;99.90;;;;;;5034798;28;20507;-83
2022/09/11 00:13:46;;;;;;;2.30;1.63;;;14.70;99.90;;;;;;5034762;28;20474;-83
2022/09/11 00:16:21;;;;;;;1.90;1.80;;;14.70;99.90;;;;;;5034932;28;20481;-83
2022/09/11 00:18:49;;;;;;;1.70;1.60;;;14.70;99.90;;;;;;5034797;28;20488;-83
2022/09/11 00:21:17;;;;;;;1.70;1.60;;;14.70;99.90;;;;;;5034814;28;20453;-83
2022/09/11 00:23:44;;;;;;;1.73;1.57;;;14.70;99.90;;;;;;5034401;28;20553;-83
2022/09/11 00:26:11;;;;;;;7.20;2.70;;;14.80;99.90;;;;;;5035083;28;20453;-83
2022/09/11 00:28:38;;;;;;;2.10;2.00;;;14.80;99.90;;;;;;5034275;28;20451;-84
2022/09/11 00:31:08;;;;;;;2.40;1.97;;;14.80;99.90;;;;;;5034531;28;20912;-83
2022/09/11 00:33:36;;;;;;;1.43;1.33;;;14.80;99.90;;;;;;5034238;28;20832;-83
2022/09/11 00:36:07;;;;;;;2.10;2.00;;;14.80;99.90;;;;;;5034708;28;20487;-83
2022/09/11 00:38:36;;;;;;;1.47;1.40;;;14.80;99.90;;;;;;5034134;28;20820;-82
2022/09/11 00:41:06;;;;;;;5.40;1.70;;;14.80;99.90;;;;;;5034612;28;20480;-83
2022/09/11 00:43:50;;;;;;;2.50;1.90;;;14.90;99.90;;;;;;5047787;28;20549;-83
2022/09/11 00:46:17;;;;;;;2.50;1.90;;;14.90;99.90;;;;;;5034641;28;20445;-83
2022/09/11 00:48:48;;;;;;;1.50;1.40;;;14.80;99.90;;;;;;5034255;28;20465;-83
2022/09/11 00:51:19;;;;;;;2.27;2.07;;;14.90;99.90;;;;;;5034239;28;20477;-83
2022/09/11 00:53:48;;;;;;;2.00;1.90;;;14.80;99.90;;;;;;5034443;28;20478;-83
2022/09/11 00:56:15;;;;;;;1.40;1.30;;;14.80;99.90;;;;;;5034030;28;20493;-83
2022/09/11 00:58:47;;;;;;;1.53;1.43;;;14.80;99.90;;;;;;5034523;28;21192;-83
2022/09/11 01:01:14;;;;;;;1.70;1.60;;;14.80;99.90;;;;;;5034028;28;20530;-82
2022/09/11 01:03:41;;;;;;;1.17;1.17;;;14.90;99.90;;;;;;5034489;28;20471;-84
2022/09/11 01:06:09;;;;;;;1.93;1.83;;;14.80;99.90;;;;;;5034797;28;20459;-83
2022/09/11 01:08:37;;;;;;;1.87;1.77;;;14.80;99.90;;;;;;5033510;28;20533;-83
2022/09/11 01:11:18;;;;;;;2.10;1.90;;;14.90;99.90;;;;;;5034788;28;20455;-83
2022/09/11 01:13:51;;;;;;;2.30;2.00;;;14.90;99.90;;;;;;5034471;28;20531;-83
2022/09/11 01:16:24;;;;;;;2.50;1.73;;;14.90;99.90;;;;;;5038122;28;20488;-83
2022/09/11 01:18:59;;;;;;;4.27;1.93;;;14.90;99.90;;;;;;5037759;28;20449;-82
2022/09/11 01:22:02;;;;;;;2.70;1.80;;;14.90;99.90;;;;;;5037930;28;20463;-83
2022/09/11 01:24:54;;;;;;;2.83;2.10;;;14.90;99.90;;;;;;5010994;28;20484;-82
2022/09/11 01:27:45;;;;;;;2.80;2.50;;;14.90;99.90;;;;;;5022105;28;20460;-83
2022/09/11 01:30:15;;;;;;;4.63;2.03;;;14.90;99.90;;;;;;5038127;28;20469;-83
2022/09/11 01:33:10;;;;;;;3.00;1.60;;;14.90;99.90;;;;;;5037505;28;20484;-82
2022/09/11 01:35:43;;;;;;;2.13;2.03;;;14.90;99.90;;;;;;5038095;28;20512;-82
2022/09/11 01:38:17;;;;;;;2.20;1.90;;;14.80;99.90;;;;;;5050322;28;20449;-81
2022/09/11 01:40:50;;;;;;;2.33;2.23;;;14.80;99.90;;;;;;5038235;28;20459;-83
2022/09/11 01:43:25;;;;;;;2.40;2.20;;;14.80;99.90;;;;;;5038777;28;20488;-82
2022/09/11 01:45:53;;;;;;;2.37;2.17;;;14.80;99.90;;;;;;5038930;28;20460;-81
2022/09/11 01:48:24;;;;;;;3.00;2.37;;;14.80;99.90;;;;;;5037646;28;20454;-81
2022/09/11 01:50:53;;;;;;;2.40;2.23;;;14.80;99.90;;;;;;5037652;28;20458;-81
2022/09/11 01:53:24;;;;;;;2.93;2.73;;;14.70;99.90;;;;;;5036803;28;20484;-81
2022/09/11 01:55:57;;;;;;;2.27;2.17;;;14.80;99.90;;;;;;5037905;28;20457;-81
2022/09/11 01:58:28;;;;;;;1.97;1.87;;;14.90;99.90;;;;;;5036909;28;20468;-82
2022/09/11 02:01:02;;;;;;;2.53;2.27;;;14.80;99.90;;;;;;5037853;28;20469;-81
2022/09/11 02:03:35;;;;;;;3.30;3.10;;;14.90;99.90;;;;;;5037491;28;20994;-81
2022/09/11 02:06:07;;;;;;;2.10;2.00;;;14.80;99.90;;;;;;5036862;28;20525;-81
2022/09/11 02:08:40;;;;;;;2.50;2.30;;;14.90;99.90;;;;;;5036957;28;20482;-81
2022/09/11 02:11:09;;;;;;;3.03;2.30;;;14.90;99.90;;;;;;5037456;28;20439;-81
2022/09/11 02:13:45;;;;;;;2.77;2.57;;;14.90;99.90;;;;;;5037182;28;20473;-82
2022/09/11 02:16:19;;;;;;;2.50;2.30;;;15.00;99.90;;;;;;5037374;28;20443;-82
2022/09/11 02:18:56;;;;;;;2.60;2.50;;;15.00;99.90;;;;;;5037110;28;20454;-81
2022/09/11 02:21:23;;;;;;;3.10;2.80;;;15.00;99.90;;;;;;5037166;28;20461;-82
2022/09/11 02:23:50;;;;;;;2.70;2.50;;;14.90;99.90;;;;;;5036672;28;20476;-82
2022/09/11 02:26:18;;;;;;;3.23;2.57;;;15.00;99.90;;;;;;5036544;28;20482;-81
2022/09/11 02:28:46;;;;;;;2.50;2.30;;;15.00;99.90;;;;;;5036435;28;20460;-82
2022/09/11 02:31:14;;;;;;;4.20;2.90;;;15.00;99.90;;;;;;5022591;28;20507;-82
2022/09/11 02:33:42;;;;;;;2.90;2.70;;;15.00;99.90;;;;;;5017452;28;20528;-81
2022/09/11 02:36:28;;;;;;;3.23;2.80;;;14.90;99.90;;;;;;5025714;28;20540;-82
2022/09/11 02:39:12;;;;;;;2.80;2.23;;;14.80;99.90;;;;;;5036499;28;20456;-82
2022/09/11 02:41:51;;;;;;;3.53;3.20;;;14.70;99.90;;;;;;5037335;28;20438;-81
2022/09/11 02:44:27;;;;;;;2.80;2.60;;;14.70;99.90;;;;;;5037306;28;20481;-81
2022/09/11 02:47:06;;;;;;;2.87;2.67;;;14.60;99.90;;;;;;5037224;28;20475;-81
2022/09/11 02:49:41;;;;;;;3.30;2.57;;;14.60;99.90;;;;;;5036378;28;20801;-81
2022/09/11 02:52:17;;;;;;;3.10;2.87;;;14.70;99.90;;;;;;5036711;28;20444;-81
2022/09/11 02:54:53;;;;;;;4.40;2.43;;;14.60;99.90;;;;;;5036627;28;20460;-82
2022/09/11 02:57:25;;;;;;;3.00;2.50;;;14.60;99.90;;;;;;5036582;28;20439;-82
2022/09/11 02:59:59;;;;;;;4.17;2.83;;;14.70;99.90;;;;;;5036874;28;20965;-81
2022/09/11 03:02:26;;;;;;;2.80;2.70;;;14.70;99.90;;;;;;5048351;28;20428;-80
2022/09/11 03:04:53;;;;;;;2.70;2.50;;;14.70;99.90;;;;;;5057181;28;20453;-82
2022/09/11 03:07:20;;;;;;;3.17;2.97;;;14.70;99.90;;;;;;5058198;28;20489;-82
2022/09/11 03:09:47;;;;;;;3.00;2.80;;;14.70;99.90;;;;;;5058205;28;20438;-82
2022/09/11 03:12:14;;;;;;;2.47;2.37;;;14.70;99.90;;;;;;5058220;28;20426;-79
2022/09/11 03:14:40;;;;;;;2.80;2.60;;;14.70;99.90;;;;;;5058081;28;20474;-80
2022/09/11 03:17:09;;;;;;;3.90;3.20;;;14.70;99.90;;;;;;5058373;28;20438;-80
2022/09/11 03:19:35;;;;;;;4.60;3.10;;;14.80;99.90;;;;;;5058678;28;20439;-82
2022/09/11 03:22:02;;;;;;;2.77;2.67;;;14.70;99.90;;;;;;5058494;28;20478;-80
2022/09/11 03:24:29;;;;;;;3.93;3.03;;;14.80;99.90;;;;;;5039164;28;20466;-81
2022/09/11 03:26:56;;;;;;;2.80;2.67;;;14.90;99.90;;;;;;5038569;28;20490;-81
2022/09/11 03:29:23;;;;;;;3.67;3.37;;;14.80;99.90;;;;;;5054634;28;20443;-81
2022/09/11 03:31:50;;;;;;;3.30;3.00;;;14.90;99.90;;;;;;5042589;28;20451;-82
2022/09/11 03:34:18;;;;;;;3.73;3.47;;;15.00;99.90;;;;;;5038755;28;20472;-81
2022/09/11 03:36:46;;;;;;;2.87;2.67;;;14.90;99.90;;;;;;5037964;28;20450;-80
2022/09/11 03:39:13;;;;;;;3.30;3.00;;;14.90;99.90;;;;;;5046563;28;20442;-80
2022/09/11 03:41:40;;;;;;;3.40;3.20;;;14.90;99.90;;;;;;5042816;28;20503;-80
2022/09/11 03:44:07;;;;;;;2.53;2.40;;;14.90;99.90;;;;;;5054614;28;20461;-81
2022/09/11 03:46:33;;;;;;;3.07;2.87;;;14.90;99.90;;;;;;5053040;28;20470;-82
2022/09/11 03:49:01;;;;;;;3.60;3.30;;;14.90;99.90;;;;;;5039374;28;20432;-82
2022/09/11 03:51:30;;;;;;;3.90;3.57;;;14.90;99.90;;;;;;5058241;28;20476;-81
2022/09/11 03:53:59;;;;;;;3.73;3.13;;;14.90;99.90;;;;;;5049303;28;20467;-82
2022/09/11 03:56:26;;;;;;;3.20;2.90;;;14.80;99.90;;;;;;5057698;28;20510;-81
2022/09/11 03:58:56;;;;;;;3.13;2.83;;;14.70;99.90;;;;;;5043083;28;20443;-82
2022/09/11 04:01:24;;;;;;;3.70;3.40;;;14.90;99.90;;;;;;5038256;28;20423;-80
2022/09/11 04:03:50;;;;;;;2.90;2.70;;;14.80;99.90;;;;;;5045433;28;20469;-81
2022/09/11 04:06:17;;;;;;;4.93;4.63;;;14.80;99.90;;;;;;5044357;28;20472;-82
2022/09/11 04:08:45;;;;;;;4.67;3.57;;;14.70;99.90;;;;;;5057631;28;20452;-81
2022/09/11 04:11:13;;;;;;;4.17;3.87;;;14.80;99.90;;;;;;5057966;28;20452;-82
2022/09/11 04:13:42;;;;;;;4.23;3.83;;;14.80;99.90;;;;;;5057263;28;20468;-82
2022/09/11 04:16:12;;;;;;;5.70;3.30;;;14.90;99.90;;;;;;5057254;28;20444;-80
2022/09/11 04:18:40;;;;;;;4.33;4.00;;;14.90;99.90;;;;;;5057434;28;20439;-82
2022/09/11 04:21:09;;;;;;;3.80;3.60;;;14.90;99.90;;;;;;5057390;28;20454;-82
2022/09/11 04:23:36;;;;;;;4.87;4.37;;;14.90;99.90;;;;;;5057498;28;20466;-82
2022/09/11 04:26:14;;;;;;;4.50;4.07;;;15.00;99.90;;;;;;5056787;28;20476;-81
2022/09/11 04:28:41;;;;;;;5.30;4.87;;;15.00;99.90;;;;;;5056956;28;20441;-83
2022/09/11 04:31:08;;;;;;;4.77;4.47;;;15.00;99.90;;;;;;5056463;28;20445;-80
2022/09/11 04:33:35;;;;;;;5.70;5.10;;;15.00;99.90;;;;;;5057097;28;20462;-82
2022/09/11 04:36:05;;;;;;;5.67;5.23;;;15.00;99.90;;;;;;5058162;28;20459;-82
2022/09/11 04:38:33;;;;;;;5.33;4.83;;;15.00;99.90;;;;;;5057580;28;20434;-81
2022/09/11 04:41:01;;;;;;;5.67;5.17;;;15.00;99.90;;;;;;5057826;28;20435;-82
2022/09/11 04:43:30;;;;;;;6.07;5.57;;;15.00;99.90;;;;;;5057806;28;20466;-83
2022/09/11 04:46:00;;;;;;;5.60;5.10;;;15.10;99.90;;;;;;5057618;28;20474;-83
2022/09/11 04:48:27;;;;;;;5.93;5.43;;;15.20;99.90;;;;;;5056780;28;20440;-82
2022/09/11 04:51:00;;;;;;;5.03;4.73;;;15.20;99.90;;;;;;5056559;28;20434;-81
2022/09/11 04:53:27;;;;;;;4.87;4.57;;;15.30;99.90;;;;;;5057310;28;20471;-81
2022/09/11 04:56:02;;;;;;;4.67;4.27;;;15.40;99.90;;;;;;5056030;28;20455;-81
2022/09/11 04:58:30;;;;;;;4.80;4.50;;;15.40;99.90;;;;;;5055226;28;20438;-80
2022/09/11 05:00:57;;;;;;;7.47;4.60;;;15.40;99.90;;;;;;5055767;28;20448;-82
2022/09/11 05:03:24;;;;;;;5.93;5.40;;;15.40;99.90;;;;;;5056680;28;20475;-82
2022/09/11 05:05:51;;;;;;;5.80;5.30;;;15.30;99.90;;;;;;5056803;28;20515;-81
2022/09/11 05:08:19;;;;;;;6.50;6.00;;;15.30;99.90;;;;;;5055996;28;20437;-82
2022/09/11 05:10:46;;;;;;;7.17;4.97;;;15.30;99.90;;;;;;5054551;28;20445;-81
2022/09/11 05:13:14;;;;;;;6.10;5.37;;;15.40;99.90;;;;;;5054894;28;20489;-81
2022/09/11 05:15:42;;;;;;;5.87;5.37;;;15.40;99.90;;;;;;5055029;28;20497;-82
2022/09/11 05:18:10;;;;;;;7.67;6.87;;;15.40;99.90;;;;;;5055723;28;20453;-82
2022/09/11 05:20:38;;;;;;;6.83;6.23;;;15.40;99.90;;;;;;5055509;28;20445;-82
2022/09/11 05:23:05;;;;;;;7.20;6.50;;;15.30;99.90;;;;;;5056160;28;20494;-82
2022/09/11 05:25:32;;;;;;;7.00;6.40;;;15.30;99.90;;;;;;5055899;28;20457;-82
2022/09/11 05:27:59;;;;;;;7.60;6.80;;;15.20;99.90;;;;;;5054678;28;20484;-81
2022/09/11 05:30:26;;;;;;;6.77;6.20;;;15.20;99.90;;;;;;5055127;28;20439;-82
2022/09/11 05:32:54;;;;;;;7.40;6.70;;;15.20;99.90;;;;;;5055369;28;20894;-82
2022/09/11 05:35:24;;;;;;;7.17;6.60;;;15.20;99.90;;;;;;5049493;28;20451;-83
2022/09/11 05:37:51;;;;;;;7.30;6.70;;;15.20;99.90;;;;;;5036838;28;20442;-83
2022/09/11 05:40:18;;;;;;;6.17;5.57;;;15.30;99.90;;;;;;5033538;28;20454;-83
2022/09/11 05:42:44;;;;;;;5.80;5.30;;;15.30;99.90;;;;;;5034320;28;20485;-86
2022/09/11 05:45:11;;;;;;;8.50;6.23;;;15.40;99.90;;;;;;5039165;28;20459;-86
2022/09/11 05:47:38;;;;;;;6.93;6.33;;;15.40;99.90;;;;;;5039522;28;20489;-87
2022/09/11 05:50:08;;;;;;;7.83;7.13;;;15.50;99.90;;;;;;5039016;28;20445;-86
2022/09/11 05:52:35;;;;;;;6.37;5.97;;;15.50;99.90;;;;;;5040146;28;20446;-86
2022/09/11 05:55:01;;;;;;;8.23;7.57;;;15.40;99.90;;;;;;5038786;28;20454;-86
2022/09/11 05:57:28;;;;;;;7.50;6.80;;;15.50;99.90;;;;;;5039733;28;20450;-87
2022/09/11 05:59:55;;;;;;;6.53;5.97;;;15.50;99.90;;;;;;5035295;28;20449;-83
2022/09/11 06:02:22;;;;;;;8.40;6.80;;;15.60;99.90;;;;;;5037523;28;20449;-83
2022/09/11 06:04:48;;;;;;;6.30;5.70;;;15.60;99.90;;;;;;5037248;28;20456;-83
2022/09/11 06:07:16;;;;;;;6.30;5.80;;;15.60;99.90;;;;;;5037302;28;20487;-83
2022/09/11 06:09:43;;;;;;;6.97;6.47;;;15.60;99.90;;;;;;5036125;28;20456;-83
2022/09/11 06:12:11;;;;;;;9.00;7.37;;;15.60;99.90;;;;;;5037043;28;20458;-83
2022/09/11 06:14:38;;;;;;;6.40;5.90;;;15.60;99.90;;;;;;5037118;28;20557;-83
2022/09/11 06:17:05;;;;;;;6.87;6.13;;;15.70;99.90;;;;;;5036755;28;20445;-83
2022/09/11 06:19:32;;;;;;;6.87;6.27;;;15.80;99.90;;;;;;5036613;28;20484;-83
2022/09/11 06:21:59;;;;;;;6.83;5.63;;;15.80;99.90;;;;;;5037193;28;20455;-83
2022/09/11 06:24:27;;;;;;;7.00;6.47;;;15.90;99.90;;;;;;5037188;28;20481;-83
2022/09/11 06:26:54;;;;;;;7.97;7.27;;;15.90;99.90;;;;;;5036991;28;20488;-83
2022/09/11 06:29:20;;;;;;;6.43;5.80;;;15.90;99.90;;;;;;5037233;28;20446;-83
2022/09/11 06:31:50;;;;;;;6.60;6.00;;;15.90;99.90;;;;;;5036741;28;20453;-83
2022/09/11 06:34:18;;;;;;;6.60;6.00;;;16.00;99.90;;;;;;5037078;28;20546;-83
2022/09/11 06:36:46;;;;;;;6.90;6.30;;;16.10;99.90;;;;;;5036561;28;20478;-83
2022/09/11 06:39:12;;;;;;;7.00;6.30;;;16.10;99.90;;;;;;5036780;28;20492;-83
2022/09/11 06:41:40;;;;;;;6.67;6.10;;;16.10;99.90;;;;;;5037173;28;20947;-83
2022/09/11 06:44:08;;;;;;;6.17;5.50;;;16.00;99.90;;;;;;5036170;28;20624;-83
2022/09/11 06:46:35;;;;;;;6.93;6.40;;;16.10;99.90;;;;;;5036847;28;20589;-86
2022/09/11 06:49:02;;;;;;;7.77;7.13;;;16.20;99.90;;;;;;5043865;28;20458;-86
2022/09/11 06:51:28;;;;;;;5.80;5.30;;;16.30;99.90;;;;;;5044398;28;20447;-86
2022/09/11 06:53:56;;;;;;;9.90;7.37;;;16.50;99.90;;;;;;5043384;28;20476;-86
2022/09/11 06:56:24;;;;;;;8.33;7.33;;;16.40;99.90;;;;;;5044000;28;20589;-86
2022/09/11 06:58:52;;;;;;;8.30;7.60;;;16.40;99.90;;;;;;5043509;28;20490;-86
2022/09/11 07:01:20;;;;;;;11.13;8.83;;;16.40;99.90;;;;;;5044523;28;20458;-86
2022/09/11 07:03:49;;;;;;;7.67;7.00;;;16.50;99.90;;;;;;5042357;28;20546;-84
2022/09/11 07:06:18;;;;;;;8.10;7.30;;;16.50;99.90;;;;;;5038786;28;20846;-84
2022/09/11 07:08:50;;;;;;;8.50;7.70;;;16.60;99.90;;;;;;5039304;28;20452;-84
2022/09/11 07:11:17;;;;;;;7.70;7.00;;;16.60;99.90;;;;;;5039872;28;20448;-84
2022/09/11 07:13:44;;;;;;;6.83;6.23;;;16.50;99.90;;;;;;5037931;28;20498;-84
2022/09/11 07:16:13;;;;;;;7.53;6.83;;;16.40;99.90;;;;;;5038776;28;20447;-84
2022/09/11 07:18:41;;;;;;;8.67;7.93;;;16.50;99.90;;;;;;5038677;28;20501;-85
2022/09/11 07:21:18;;;;;;;7.23;6.73;;;16.50;99.90;;;;;;5037732;28;20447;-84
2022/09/11 07:23:49;;;;;;;8.53;7.73;;;16.50;99.90;;;;;;5037376;28;20490;-84
2022/09/11 07:26:17;;;;;;;6.80;6.10;;;16.50;99.90;;;;;;5037331;28;20448;-84
2022/09/11 07:28:50;;;;;;;7.43;6.83;;;16.50;99.90;;;;;;5036880;28;20477;-83
2022/09/11 07:31:20;;;;;;;9.10;6.60;;;16.60;99.90;;;;;;5018941;28;20454;-84
2022/09/11 07:33:49;;;;;;;7.23;6.63;;;16.70;99.90;;;;;;5022027;28;20538;-84
2022/09/11 07:36:19;;;;;;;7.93;7.23;;;16.70;99.90;;;;;;5037484;28;20438;-84
2022/09/11 07:38:47;;;;;;;9.60;8.57;;;16.70;99.90;;;;;;5037484;28;20458;-84
2022/09/11 07:41:18;;;;;;;8.57;7.60;;;16.70;99.90;;;;;;5037816;28;20454;-84
2022/09/11 07:43:47;;;;;;;9.03;8.23;;;16.70;99.90;;;;;;5038783;28;20569;-84
2022/09/11 07:46:14;;;;;;;7.60;6.23;;;16.70;99.90;;;;;;5038589;28;20489;-83
2022/09/11 07:48:46;;;;;;;7.40;6.80;;;16.80;99.90;;;;;;5038247;28;21050;-84
2022/09/11 07:51:16;;;;;;;7.97;6.97;;;16.80;99.90;;;;;;5038395;28;20826;-82
2022/09/11 07:53:44;;;;;;;10.57;9.33;;;16.90;99.90;;;;;;5037662;28;20859;-84
2022/09/11 07:56:14;;;;;;;8.47;7.60;;;16.90;99.90;;;;;;5041928;28;20463;-85
2022/09/11 07:58:42;;;;;;;9.20;8.30;;;17.10;99.90;;;;;;5042004;28;20473;-85
2022/09/11 08:01:11;;;;;;;7.50;6.17;;;17.10;99.90;;;;;;5041223;28;20574;-85
2022/09/11 08:03:38;;;;;;;8.17;7.50;;;17.10;99.90;;;;;;5041538;28;20501;-85
2022/09/11 08:06:09;;;;;;;7.43;6.93;;;17.10;99.90;;;;;;5041203;28;20469;-83
2022/09/11 08:08:36;;;;;;;8.03;7.33;;;17.20;99.90;;;;;;5040100;28;20523;-85
2022/09/11 08:11:05;;;;;;;8.97;8.17;;;17.30;99.90;;;;;;5041220;28;20487;-85
2022/09/11 08:13:32;;;;;;;8.30;6.87;;;17.30;99.90;;;;;;5041951;28;20542;-85
2022/09/11 08:15:59;;;;;;;7.20;6.60;;;17.30;99.90;;;;;;5041633;28;20482;-84
2022/09/11 08:18:26;;;;;;;8.10;7.40;;;17.40;99.90;;;;;;5039747;28;20535;-85
2022/09/11 08:20:54;;;;;;;7.90;7.30;;;17.40;99.90;;;;;;5028199;28;20447;-84
2022/09/11 08:23:22;;;;;;;7.07;6.57;;;17.30;99.90;;;;;;5032762;28;20471;-83
2022/09/11 08:25:49;;;;;;;7.27;6.57;;;17.40;99.90;;;;;;5030437;28;20455;-85
2022/09/11 08:28:16;;;;;;;12.13;9.80;;;17.50;99.90;;;;;;5030046;28;20570;-84
2022/09/11 08:30:43;;;;;;;8.67;7.60;;;17.40;99.90;;;;;;5036659;28;20440;-85
2022/09/11 08:33:12;;;;;;;8.50;7.80;;;17.40;99.90;;;;;;5031497;28;20821;-85
2022/09/11 08:35:39;;;;;;;7.70;7.10;;;17.40;99.90;;;;;;5034898;28;20460;-83
2022/09/11 08:38:05;;;;;;;7.87;7.17;;;17.40;99.90;;;;;;5045501;28;20460;-82
2022/09/11 08:40:37;;;;;;;9.70;8.70;;;17.40;99.90;;;;;;5048894;28;20451;-82
2022/09/11 08:43:05;;;;;;;7.70;7.00;;;17.40;99.90;;;;;;5034306;28;20473;-82
2022/09/11 08:45:35;;;;;;;8.60;7.80;;;17.50;99.90;;;;;;5027310;28;20455;-83
2022/09/11 08:48:05;;;;;;;7.20;6.60;;;17.70;99.90;;;;;;5040505;28;20497;-84
2022/09/11 08:50:38;;;;;;;8.10;7.40;;;17.90;99.90;;;;;;5034290;28;20983;-84
2022/09/11 08:53:21;;;;;;;8.57;7.77;;;18.00;99.90;;;;;;5041809;28;20512;-87
2022/09/11 08:55:59;;;;;;;8.07;7.27;;;18.00;99.90;;;;;;5041693;28;20456;-86
2022/09/11 08:59:12;;;;;;;6.60;6.10;;;18.10;99.90;;;;;;5040637;28;21016;-83
2022/09/11 09:12:04;;;;;;;5.93;5.43;;;18.50;99.90;;;;;;5019841;28;20448;-84
2022/09/11 09:14:56;;;;;;;6.77;6.17;;;18.60;99.90;;;;;;5041894;28;20491;-84
2022/09/11 09:17:37;;;;;;;7.47;6.53;;;18.70;99.90;;;;;;5041302;28;20456;-82
2022/09/11 09:20:51;;;;;;;;;;;;;;;;;;;;;
2022/09/11 09:23:23;;;;;;;6.40;5.83;;;18.90;99.90;;;;;;5021857;28;20566;-84
2022/09/11 09:26:18;;;;;;;5.73;5.33;;;19.00;99.90;;;;;;5041258;28;20562;-84
2022/09/11 09:32:29;;;;;;;6.60;6.00;;;19.20;99.90;;;;;;4997407;28;20543;-84
2022/09/11 09:35:15;;;;;;;5.50;5.10;;;19.30;99.90;;;;;;5039992;28;20452;-84
2022/09/11 09:37:56;;;;;;;5.63;5.13;;;19.30;99.90;;;;;;5044650;28;20436;-83
2022/09/11 09:40:26;;;;;;;5.90;4.80;;;19.40;99.90;;;;;;5043975;28;20456;-83
2022/09/11 09:47:11;;;;;;;5.57;5.17;;;19.90;99.90;;;;;;4906427;29;20549;-84
2022/09/11 10:13:37;;;;;;;7.13;6.43;;;19.60;99.90;;;;;;6217257;23;20470;-82
2022/09/11 10:16:20;;;;;;;7.43;6.83;;;19.70;99.90;;;;;;6176296;23;20390;-85
2022/09/11 10:21:48;;;;;;;6.40;5.80;;;19.80;99.90;;;;;;6192419;23;20435;-84
2022/09/11 10:24:22;;;;;;;7.83;7.03;;;20.00;99.90;;;;;;6204197;23;20426;-85
2022/09/11 10:26:52;;;;;;;6.40;5.90;;;20.10;99.90;;;;;;6204560;23;20390;-84
2022/09/11 10:29:23;;;;;;;6.63;6.13;;;20.20;99.90;;;;;;6204779;23;20390;-85
2022/09/11 10:31:53;;;;;;;6.33;5.93;;;20.30;99.90;;;;;;6203675;23;20424;-85
2022/09/11 10:34:22;;;;;;;6.33;5.83;;;20.40;99.90;;;;;;6202713;23;21000;-85
2022/09/11 10:36:53;;;;;;;8.00;7.20;;;20.50;99.90;;;;;;6202453;23;20417;-83
2022/09/11 10:39:30;;;;;;;6.77;6.07;;;20.60;99.90;;;;;;6201079;23;20441;-85
2022/09/11 10:42:05;;;;;;;7.40;6.70;;;20.60;99.90;;;;;;6201599;23;20477;-85
2022/09/11 10:44:33;;;;;;;6.90;6.40;;;20.50;99.90;;;;;;6202237;23;20437;-84
2022/09/11 10:47:05;;;;;;;7.53;6.87;;;20.50;99.90;;;;;;6200942;23;20421;-84
2022/09/11 10:49:33;;;;;;;7.53;6.93;;;20.60;99.90;;;;;;6201226;23;20455;-85
2022/09/11 10:52:04;;;;;;;6.73;6.23;;;20.70;99.90;;;;;;6200652;23;20396;-84
2022/09/11 10:54:52;;;;;;;7.00;6.40;;;20.70;99.90;;;;;;6201634;23;20503;-85
2022/09/11 10:57:24;;;;;;;7.60;7.10;;;21.00;99.90;;;;;;6201535;23;20494;-83
2022/09/11 11:00:01;;;;;;;7.50;7.00;;;21.10;99.90;;;;;;6201518;23;20485;-85
2022/09/11 11:02:32;;;;;;;6.83;6.17;;;21.40;99.90;;;;;;6201136;23;20395;-85
2022/09/11 11:05:03;;;;;;;6.20;5.77;;;21.90;99.00;;;;;;6202207;23;20430;-81
2022/09/11 11:07:49;;;;;;;6.60;6.03;;;22.40;99.60;;;;;;6203140;23;20398;-81
2022/09/11 11:10:34;;;;;;;8.17;5.73;;;23.30;98.30;;;;;;6213134;23;20497;-80
2022/09/11 11:19:58;;;;;;;6.43;5.77;;;26.80;90.10;;;;;;6192147;23;20848;-81
2022/09/11 11:22:41;;;;;;;5.23;4.83;;;26.80;88.90;;;;;;6196074;23;20417;-82
2022/09/11 11:25:14;;;;;;;4.77;4.47;;;26.70;89.70;;;;;;6195365;23;20798;-83
2022/09/11 11:28:00;;;;;;;5.80;5.40;;;25.90;86.30;;;;;;6196465;23;20406;-84
2022/09/11 11:30:33;;;;;;;7.17;6.57;;;25.30;88.60;;;;;;6197177;23;20478;-83
2022/09/11 11:33:21;;;;;;;7.17;6.60;;;24.50;90.40;;;;;;6196463;23;20429;-83
2022/09/11 11:36:02;;;;;;;6.57;6.13;;;23.40;91.90;;;;;;6195163;23;20394;-84
2022/09/11 11:38:39;;;;;;;6.20;5.80;;;22.70;93.40;;;;;;6194759;23;20527;-83
2022/09/11 11:41:12;;;;;;;8.40;7.80;;;22.00;94.70;;;;;;6193129;23;20401;-84
2022/09/11 11:43:41;;;;;;;8.00;7.30;;;21.80;95.60;;;;;;6194882;23;20439;-81
2022/09/11 11:46:16;;;;;;;7.43;6.83;;;21.60;96.10;;;;;;6190571;23;20409;-81
2022/09/11 11:48:50;;;;;;;15.30;7.00;;;21.40;96.60;;;;;;6188271;23;20395;-81
2022/09/11 11:51:19;;;;;;;5.80;5.40;;;21.50;97.40;;;;;;6187442;23;20408;-81
2022/09/11 11:53:55;;;;;;;5.43;5.07;;;22.30;97.20;;;;;;6192835;23;20440;-81
2022/09/11 11:56:29;;;;;;;4.33;4.03;;;23.30;97.10;;;;;;6193124;23;20901;-82
2022/09/11 11:59:02;;;;;;;5.67;5.27;;;24.40;95.50;;;;;;6190940;23;20952;-82
2022/09/11 12:01:35;;;;;;;4.70;4.30;;;25.20;93.00;;;;;;6193247;23;20419;-81
2022/09/11 12:04:17;;;;;;;5.13;4.83;;;25.80;92.50;;;;;;6189077;23;21047;-83
2022/09/11 12:13:29;;;;;;;5.53;4.70;;;27.00;86.60;;;;;;6115115;23;20435;-85
2022/09/11 12:19:13;;;;;;;6.33;5.90;;;26.90;85.10;;;;;;6168689;23;20437;-84
2022/09/11 12:21:42;;;;;;;5.77;5.23;;;26.70;85.00;;;;;;6188879;23;20429;-86
2022/09/11 12:24:17;;;;;;;5.30;4.90;;;26.50;84.30;;;;;;6189240;23;20425;-86
2022/09/11 12:26:51;;;;;;;5.33;5.00;;;25.90;83.50;;;;;;6194418;23;20433;-85
2022/09/11 12:29:55;;;;;;;4.90;4.60;;;25.20;83.70;;;;;;6195151;23;20394;-83
2022/09/11 12:32:41;;;;;;;4.93;4.63;;;24.90;87.20;;;;;;6192618;23;20398;-82
2022/09/11 12:35:20;;;;;;;4.43;4.00;;;24.70;89.00;;;;;;6191951;23;20479;-85
2022/09/11 12:38:05;;;;;;;4.33;4.10;;;24.60;88.80;;;;;;6193192;23;20397;-84
2022/09/11 12:41:32;;;;;;;5.07;4.60;;;24.70;89.50;;;;;;6196516;23;20417;-83
2022/09/11 12:47:40;;;;;;;4.63;4.33;;;25.30;88.60;;;;;;6193982;23;20957;-85
2022/09/11 12:50:44;;;;;;;4.90;4.60;;;25.70;88.00;;;;;;6195563;23;20436;-85
2022/09/11 12:53:38;;;;;;;5.00;4.70;;;25.90;85.60;;;;;;6195655;23;21018;-84
2022/09/11 12:56:20;;;;;;;6.73;4.27;;;25.90;83.20;;;;;;6193683;23;20947;-84
2022/09/11 12:59:58;;;;;;;4.90;4.50;;;25.70;81.80;;;;;;6194438;23;20444;-84
2022/09/11 13:12:01;;;;;;;6.03;5.53;;;24.40;86.40;;;;;;6195807;23;20453;-84
2022/09/11 13:14:50;;;;;;;6.17;5.73;;;24.10;88.70;;;;;;6195818;23;20468;-84
2022/09/11 13:17:25;;;;;;;5.63;5.00;;;24.00;89.90;;;;;;6195495;23;20411;-84
2022/09/11 13:20:30;;;;;;;5.47;5.07;;;24.00;90.70;;;;;;6193542;23;20488;-82
2022/09/11 13:23:26;;;;;;;5.23;4.77;;;24.00;90.80;;;;;;6192754;23;20449;-83
2022/09/11 13:26:30;;;;;;;5.17;4.40;;;23.90;89.00;;;;;;6167311;23;20414;-84
2022/09/11 13:29:03;;;;;;;4.93;4.47;;;24.00;87.90;;;;;;6192301;23;20406;-84
2022/09/11 13:31:34;;;;;;;4.23;3.93;;;24.10;86.40;;;;;;6193912;23;20939;-85
2022/09/11 13:34:03;;;;;;;5.80;5.30;;;24.20;88.10;;;;;;6194722;23;20430;-85
2022/09/11 13:36:34;;;;;;;4.97;4.67;;;24.30;89.60;;;;;;6195556;23;20406;-84
2022/09/11 13:39:04;;;;;;;5.17;4.77;;;24.30;88.90;;;;;;6208868;23;20462;-80
2022/09/11 13:41:33;;;;;;;5.00;4.70;;;24.30;88.50;;;;;;6209074;23;20402;-82
2022/09/11 13:44:02;;;;;;;5.53;5.13;;;24.20;87.70;;;;;;6196153;23;20437;-82
2022/09/11 13:46:31;;;;;;;4.60;4.27;;;24.30;89.20;;;;;;6193998;23;20406;-84
2022/09/11 13:49:19;;;;;;;5.50;5.10;;;24.30;88.70;;;;;;6193394;23;20410;-83
2022/09/11 13:51:47;;;;;;;5.50;5.20;;;24.30;89.80;;;;;;6194603;23;20478;-83
2022/09/11 13:54:17;;;;;;;5.80;5.40;;;24.30;89.50;;;;;;6194371;23;20517;-84
2022/09/11 13:57:10;;;;;;;5.73;5.27;;;24.10;88.90;;;;;;6194384;23;20410;-84
2022/09/11 13:59:40;;;;;;;5.10;4.70;;;23.90;90.00;;;;;;6194080;23;20430;-84
2022/09/11 14:02:33;;;;;;;5.10;4.73;;;23.60;90.30;;;;;;6193269;23;20426;-83
2022/09/11 14:05:09;;;;;;;6.40;6.00;;;23.40;90.30;;;;;;6167640;23;20418;-84
2022/09/11 14:07:44;;;;;;;6.67;6.07;;;23.30;90.60;;;;;;6192989;23;20394;-83
2022/09/11 14:10:19;;;;;;;5.83;5.43;;;23.20;91.30;;;;;;6193236;23;20400;-84
2022/09/11 14:12:50;;;;;;;6.70;6.10;;;23.10;91.00;;;;;;6192911;23;20504;-84
2022/09/11 14:15:27;;;;;;;5.43;5.00;;;23.00;91.40;;;;;;6192958;23;20401;-84
2022/09/11 14:17:59;;;;;;;5.50;5.10;;;23.00;92.00;;;;;;6192390;23;20436;-84
2022/09/11 14:20:29;;;;;;;5.50;5.10;;;23.10;92.20;;;;;;6193502;23;20836;-83
2022/09/11 14:23:01;;;;;;;6.13;5.73;;;23.20;92.10;;;;;;6168013;23;20445;-84
2022/09/11 14:25:35;;;;;;;5.73;5.30;;;23.20;91.90;;;;;;6193178;23;20417;-84
2022/09/11 14:28:35;;;;;;;5.10;4.80;;;23.10;91.80;;;;;;6191641;23;20472;-84
2022/09/11 14:31:36;;;;;;;4.70;4.40;;;23.10;91.20;;;;;;6194054;23;20418;-84